Askov, MN

6:27 AM CDT on July 31, 2014 (GMT -0500)
RiverLand (KMNFINLA2) Elev 1115 ft | 46.29 °N, 92.96 °W | Change Station

Current weather conditions updated 50 seconds ago

Clear
Clear
57.0 °F
Feels Like 57.0 °F
N
0.0
Wind Variable Wind from South
Gusts 0.0 mph

Today is forecast to be nearly the same temperature as yesterday.

Today
High -- | Low -- °F
--% Chance of Precip.
Yesterday
High -- | Low -- °F
Precip. -- in
5:51 AM 8:42 PM
Waxing Crescent, 18% visible
Pressure 29.99 in
Visibility 7.0 miles
Clouds Clear
Dew Point 51 °F
Humidity 81%
Rainfall 0.00 in
Snow Depth Not available.
UV 0 out of 12
Pollen 6.00 out of 12
Air Quality Not available.
Flu Activity Not available.
METAR KMZH 311115Z AUTO 00000KT 7SM CLR 11/11 A2999 RMK AO2

More Conditions Fewer Conditions

Pressure 29.99 in
Visibility 7.0 miles
Clouds Clear
Dew Point 51 °F
Humidity 81%
Rainfall 0.00 in
Snow Depth Not available.
UV 0 out of 12
Pollen 6.00 out of 12
Air Quality Not available.
Flu Activity Not available.
METAR KMZH 311115Z AUTO 00000KT 7SM CLR 11/11 A2999 RMK AO2

More Conditions Fewer Conditions

10-Day Weather Forecast

Almanac

Astronomy

Jul. 31, 2014 Rise Set
Actual Time 5:51 AM CDT 8:42 PM CDT
Civil Twilight 5:16 AM CDT 9:17 PM CDT
Nautical Twilight 4:32 AM CDT 10:01 PM CDT
Astronomical Twilight 3:39 AM CDT 10:54 PM CDT
Moon 10:37 AM CDT 10:36 PM CDT
Length of Visible Light 16h 00m
Length of Day
14h 51m
Tomorrow will be 2m 32s shorter.
Waxing Crescent, 18% of the Moon is Illuminated
Today
Waxing Crescent
Aug 3
First Quarter
Aug 10
Full
Aug 17
Last Quarter
Aug 25
New

Today's Extremes

State Highs State Lows

Community

WunderPhotos

Upload Photos

1,739,296 photos uploaded!

WunderBlogs® & News

Nearby

Snow Depth

Station Depth Elevation
No new snow has been reported.

Earthquake Activity

City Distance Mag. Time & Date
No recent earthquake activity has been reported nearby.
Minimum magnitude displayed is 2.5.

Coastal Water Temperatures

Place Temperature
No Stations Reporting

Nearby Weather Stations

Station Location Temp. Dew Point Humidity Wind Precip. Elev Updated Type
RiverLand, Finlayson, MN 57.0 °F 51 °F 81% South  at  0.0 mph 0.00 in / hr 1115 ft 6:26 AM CDT Rapid Fire
Coffee Lake, Moose Lake Twp., MN 55.9 °F 56 °F 99% WNW  at  0.0 mph 0.00 in / hr 1060 ft 6:27 AM CDT Rapid Fire
None, Brook Park, MN 56.1 °F 56 °F 99% ESE  at  0.0 mph 0.00 in / hr 1030 ft 6:27 AM CDT Rapid Fire

Show More Stations Show Fewer Stations